createdAt,value
2022-08-09T00:00:23.480Z,94695.09
2022-08-09T00:02:52.311Z,94687.06
2022-08-09T00:06:16.162Z,94695.44
2022-08-09T00:08:12.954Z,94686.09
2022-08-09T00:11:00.978Z,94685.31
2022-08-09T00:13:34.360Z,94683.63
2022-08-09T00:16:06.628Z,94690.22
2022-08-09T00:18:36.173Z,94689.09
2022-08-09T00:21:08.418Z,94686.16
2022-08-09T00:23:54.874Z,94695.41
2022-08-09T00:26:32.354Z,94699.22
2022-08-09T00:29:02.556Z,94693.56
2022-08-09T00:31:59.267Z,94696.94
2022-08-09T00:34:20.436Z,94700.38
2022-08-09T00:36:49.419Z,94709.31
2022-08-09T00:40:10.208Z,94694.56
2022-08-09T00:44:19.181Z,94695.25
2022-08-09T00:44:56.495Z,94693.81
2022-08-09T00:47:25.421Z,94692.34
2022-08-09T00:49:56.474Z,94700.28
2022-08-09T00:52:30.082Z,94700.28
2022-08-09T00:55:01.219Z,94697.34
2022-08-09T00:57:34.710Z,94702.16
2022-08-09T01:00:21.859Z,94710.75
2022-08-09T01:02:54.861Z,94709.09
2022-08-09T01:05:46.426Z,94706.91
2022-08-09T01:08:28.543Z,94709.38
2022-08-09T01:11:09.709Z,94716.59
2022-08-09T01:13:59.418Z,94715.31
2022-08-09T01:16:35.101Z,94718.06
2022-08-09T01:19:17.147Z,94716.22
2022-08-09T01:22:26.168Z,94715.75
2022-08-09T01:25:01.869Z,94715.34
2022-08-09T01:27:34.826Z,94714.84
2022-08-09T01:30:08.312Z,94705.75
2022-08-09T01:32:58.641Z,94713.59
2022-08-09T01:35:38.311Z,94706.66
2022-08-09T01:38:15.415Z,94695.63
2022-08-09T01:40:52.990Z,94691.28
2022-08-09T01:43:51.070Z,94674.97
2022-08-09T01:46:25.286Z,94675.94
2022-08-09T01:48:59.779Z,94657.75
2022-08-09T01:51:32.233Z,94675.56
2022-08-09T01:54:02.469Z,94678.50
2022-08-09T01:56:34.578Z,94673.84
2022-08-09T01:59:10.508Z,94674.56
2022-08-09T02:02:00.136Z,94674.63
2022-08-09T02:04:31.397Z,94675.28
2022-08-09T02:07:18.415Z,94668.56
2022-08-09T02:10:01.361Z,94671.06
2022-08-09T02:12:35.010Z,94674.28
2022-08-09T02:15:11.728Z,94667.06
2022-08-09T02:18:01.113Z,94667.56
2022-08-09T02:20:36.332Z,94665.13
2022-08-09T02:23:09.388Z,94666.66
2022-08-09T02:25:49.494Z,94674.84
2022-08-09T02:28:24.524Z,94665.47
2022-08-09T02:31:02.683Z,94676.06
2022-08-09T02:33:38.057Z,94673.59
2022-08-09T02:36:41.980Z,94677.00
2022-08-09T02:39:20.097Z,94674.84
2022-08-09T02:42:06.949Z,94678.69
2022-08-09T02:44:38.845Z,94686.31
2022-08-09T02:47:12.765Z,94698.53
2022-08-09T02:49:46.705Z,94696.91
2022-08-09T02:52:29.720Z,94695.09
2022-08-09T02:55:20.146Z,94686.19
2022-08-09T02:58:00.573Z,94690.09
2022-08-09T03:00:58.208Z,94685.25
2022-08-09T03:04:12.823Z,94686.69
2022-08-09T03:06:19.735Z,94692.91
2022-08-09T03:08:52.831Z,94694.59
2022-08-09T03:12:04.217Z,94691.34
2022-08-09T03:14:12.447Z,94688.97
2022-08-09T03:16:45.088Z,94676.78
2022-08-09T03:19:52.282Z,94682.75
2022-08-09T03:22:11.864Z,94683.22
2022-08-09T03:25:06.578Z,94698.19
2022-08-09T03:27:45.327Z,94692.13
2022-08-09T03:30:30.129Z,94695.00
2022-08-09T03:33:12.852Z,94684.78
2022-08-09T03:36:12.904Z,94697.94
2022-08-09T03:38:42.058Z,94699.78
2022-08-09T03:41:15.279Z,94698.41
2022-08-09T03:43:51.883Z,94696.72
2022-08-09T03:46:32.451Z,94696.97
2022-08-09T03:49:04.185Z,94706.03
2022-08-09T03:51:58.397Z,94708.38
2022-08-09T03:54:31.158Z,94701.13
2022-08-09T03:57:04.327Z,94711.47
2022-08-09T03:59:54.248Z,94714.34
2022-08-09T04:02:26.953Z,94705.28
2022-08-09T04:04:58.470Z,94703.44
2022-08-09T04:07:47.847Z,94706.19
2022-08-09T04:10:18.425Z,94707.47
2022-08-09T04:12:50.914Z,94717.75
2022-08-09T04:15:42.825Z,94712.56
2022-08-09T04:18:08.848Z,94713.13
2022-08-09T04:20:36.859Z,94706.72
2022-08-09T04:23:09.850Z,94712.66
2022-08-09T04:25:38.538Z,94717.63
2022-08-09T04:28:07.151Z,94712.31
2022-08-09T04:30:35.218Z,94714.28
2022-08-09T04:33:03.255Z,94713.31
2022-08-09T04:35:32.892Z,94712.84
2022-08-09T04:38:03.511Z,94714.88
2022-08-09T04:40:47.137Z,94722.31
2022-08-09T04:43:15.888Z,94722.66
2022-08-09T04:45:53.510Z,94721.03
2022-08-09T04:48:23.883Z,94734.38
2022-08-09T04:51:01.818Z,94738.72
2022-08-09T04:53:31.342Z,94736.88
2022-08-09T04:56:01.121Z,94743.16
2022-08-09T04:58:31.827Z,94740.50
2022-08-09T05:01:03.403Z,94751.88
2022-08-09T05:03:42.722Z,94742.19
2022-08-09T05:06:21.999Z,94736.75
2022-08-09T05:09:00.566Z,94743.47
2022-08-09T05:11:32.298Z,94740.38
2022-08-09T05:14:05.982Z,94744.59
2022-08-09T05:16:58.042Z,94743.88
2022-08-09T05:19:25.537Z,94741.56
2022-08-09T05:21:56.041Z,94739.47
2022-08-09T05:24:24.883Z,94748.47
2022-08-09T05:26:54.616Z,94752.16
2022-08-09T05:29:31.624Z,94747.72
2022-08-09T05:32:03.394Z,94756.09
2022-08-09T05:34:34.055Z,94758.56
2022-08-09T05:37:06.856Z,94748.56
2022-08-09T05:39:43.661Z,94757.69
2022-08-09T05:42:20.592Z,94759.75
2022-08-09T05:44:56.945Z,94759.91
2022-08-09T05:47:30.461Z,94760.66
2022-08-09T05:50:26.786Z,94758.91
2022-08-09T05:52:53.670Z,94764.28
2022-08-09T05:55:24.029Z,94750.44
2022-08-09T05:57:56.420Z,94756.72
2022-08-09T06:00:26.890Z,94761.09
2022-08-09T06:02:58.706Z,94755.72
2022-08-09T06:05:49.978Z,94745.44
2022-08-09T06:08:19.440Z,94755.75
2022-08-09T06:10:52.238Z,94758.53
2022-08-09T06:13:21.825Z,94749.56
2022-08-09T06:15:51.669Z,94760.00
2022-08-09T06:18:23.791Z,94757.16
2022-08-09T06:20:57.085Z,94757.84
2022-08-09T06:23:55.170Z,94762.63
2022-08-09T06:26:20.075Z,94756.38
2022-08-09T06:28:59.434Z,94765.50
2022-08-09T06:31:30.977Z,94764.03
2022-08-09T06:33:59.783Z,94754.31
2022-08-09T06:36:30.038Z,94759.19
2022-08-09T06:38:58.935Z,94759.28
2022-08-09T06:42:08.244Z,94755.06
2022-08-09T06:44:20.058Z,94757.06
2022-08-09T06:46:55.288Z,94751.44
2022-08-09T06:49:44.752Z,94753.34
2022-08-09T06:52:12.217Z,94754.56
2022-08-09T06:54:44.080Z,94754.13
2022-08-09T06:57:13.376Z,94756.78
2022-08-09T07:00:49.543Z,94748.31
2022-08-09T07:02:31.819Z,94750.53
2022-08-09T07:05:00.229Z,94749.38
2022-08-09T07:07:59.023Z,94751.09
2022-08-09T07:10:30.003Z,94757.53
2022-08-09T07:13:18.579Z,94751.97
2022-08-09T07:16:36.369Z,94743.22
2022-08-09T07:18:38.636Z,94748.84
2022-08-09T07:21:07.683Z,94742.50
2022-08-09T07:23:36.484Z,94742.22
2022-08-09T07:26:24.267Z,94745.41
2022-08-09T07:29:09.411Z,94744.34
2022-08-09T07:31:45.452Z,94754.19
2022-08-09T07:34:20.635Z,94745.19
2022-08-09T07:36:49.592Z,94743.91
2022-08-09T07:39:20.193Z,94742.06
2022-08-09T07:42:06.631Z,94742.63
2022-08-09T07:44:51.153Z,94747.16
2022-08-09T07:47:39.493Z,94752.78
2022-08-09T07:50:10.851Z,94747.19
2022-08-09T07:52:41.366Z,94742.91
2022-08-09T07:55:11.770Z,94746.94
2022-08-09T07:57:46.837Z,94742.94
2022-08-09T08:00:20.835Z,94742.69
2022-08-09T08:03:08.411Z,94734.41
2022-08-09T08:05:39.274Z,94736.81
2022-08-09T08:09:01.126Z,94738.66
2022-08-09T08:12:25.062Z,94734.09
2022-08-09T08:13:58.816Z,94730.88
2022-08-09T08:16:31.326Z,94732.47
2022-08-09T08:19:03.233Z,94719.13
2022-08-09T08:21:32.649Z,94727.63
2022-08-09T08:24:01.130Z,94720.41
2022-08-09T08:26:52.467Z,94727.28
2022-08-09T08:29:20.122Z,94724.03
2022-08-09T08:32:03.204Z,94719.44
2022-08-09T08:34:36.606Z,94719.69
2022-08-09T08:37:05.355Z,94715.31
2022-08-09T08:39:43.407Z,94710.22
2022-08-09T08:42:13.578Z,94714.97
2022-08-09T08:44:43.857Z,94709.09
2022-08-09T08:47:15.167Z,94705.63
2022-08-09T08:49:48.358Z,94702.91
2022-08-09T08:55:08.526Z,94706.88
2022-08-09T08:57:37.892Z,94699.13
2022-08-09T09:00:16.951Z,94692.59
2022-08-09T09:03:04.416Z,94688.38
2022-08-09T09:06:03.326Z,94694.09
2022-08-09T09:08:30.437Z,94686.47
2022-08-09T09:11:03.662Z,94692.81
2022-08-09T09:13:50.290Z,94684.94
2022-08-09T09:16:30.171Z,94677.91
2022-08-09T09:19:37.296Z,94675.03
2022-08-09T09:22:05.423Z,94676.06
2022-08-09T09:24:39.714Z,94673.53
2022-08-09T09:27:22.169Z,94672.88
2022-08-09T09:30:11.404Z,94675.81
2022-08-09T09:32:44.843Z,94669.44
2022-08-09T09:35:15.876Z,94657.84
2022-08-09T09:37:47.225Z,94663.78
2022-08-09T09:40:15.494Z,94651.38
2022-08-09T09:42:56.541Z,94653.28
2022-08-09T09:45:26.805Z,94653.28
2022-08-09T09:47:58.625Z,94654.09
2022-08-09T09:50:50.558Z,94650.97
2022-08-09T09:53:25.050Z,94650.97
2022-08-09T09:56:20.100Z,94660.25
2022-08-09T09:58:59.034Z,94657.97
2022-08-09T10:01:36.921Z,94648.97
2022-08-09T10:04:13.896Z,94645.50
2022-08-09T10:06:46.948Z,94645.94
2022-08-09T10:09:22.454Z,94647.31
2022-08-09T10:12:07.794Z,94652.66
2022-08-09T10:14:47.975Z,94656.03
2022-08-09T10:17:50.735Z,94644.72
2022-08-09T10:20:32.370Z,94638.56
2022-08-09T10:23:17.217Z,94645.78
2022-08-09T10:26:06.184Z,94646.38
2022-08-09T10:28:37.342Z,94641.97
2022-08-09T10:34:11.450Z,94641.94
2022-08-09T10:36:43.296Z,94636.56
2022-08-09T10:39:15.661Z,94636.94
2022-08-09T10:41:45.624Z,94645.91
2022-08-09T10:44:18.815Z,94636.31
2022-08-09T10:48:12.058Z,94634.69
2022-08-09T10:50:14.963Z,94630.88
2022-08-09T10:53:10.496Z,94628.41
2022-08-09T10:55:58.026Z,94620.78
2022-08-09T10:58:33.696Z,94615.22
2022-08-09T11:03:02.714Z,94634.63
2022-08-09T11:04:30.706Z,94627.28
2022-08-09T11:07:57.848Z,94635.66
2022-08-09T11:10:17.878Z,94628.09
2022-08-09T11:13:49.063Z,94625.97
2022-08-09T11:16:36.210Z,94626.69
2022-08-09T11:19:09.570Z,94628.19
2022-08-09T11:22:05.038Z,94620.16
2022-08-09T11:25:05.461Z,94629.88
2022-08-09T11:28:03.055Z,94624.47
2022-08-09T11:30:35.902Z,94619.28
2022-08-09T11:33:10.642Z,94628.84
2022-08-09T11:35:49.683Z,94622.00
2022-08-09T11:38:22.619Z,94618.50
2022-08-09T11:41:06.008Z,94621.22
2022-08-09T11:43:42.437Z,94624.88
2022-08-09T11:46:11.367Z,94617.47
2022-08-09T11:48:52.164Z,94616.44
2022-08-09T11:52:48.750Z,94608.34
2022-08-09T11:54:28.926Z,94612.03
2022-08-09T11:57:56.392Z,94611.56
2022-08-09T12:00:28.177Z,94607.19
2022-08-09T12:02:57.784Z,94612.97
2022-08-09T12:05:37.967Z,94608.81
2022-08-09T12:08:12.088Z,94609.03
2022-08-09T12:10:48.285Z,94600.84
2022-08-09T12:14:08.447Z,94595.91
2022-08-09T12:16:37.760Z,94600.72
2022-08-09T12:19:08.896Z,94596.97
2022-08-09T12:21:48.624Z,94587.94
2022-08-09T12:24:24.054Z,94585.56
2022-08-09T12:28:59.954Z,94573.94
2022-08-09T12:30:01.499Z,94583.88
2022-08-09T12:32:42.224Z,94582.28
2022-08-09T12:35:13.377Z,94572.22
2022-08-09T12:37:51.675Z,94571.84
2022-08-09T12:40:23.255Z,94567.84
2022-08-09T12:42:53.277Z,94557.16
2022-08-09T12:45:33.519Z,94557.66
2022-08-09T12:48:10.716Z,94557.97
2022-08-09T12:50:49.540Z,94554.47
2022-08-09T12:53:37.631Z,94539.69
2022-08-09T12:56:13.815Z,94546.84
2022-08-09T12:59:09.189Z,94529.28
2022-08-09T13:01:42.623Z,94534.50
2022-08-09T13:04:37.017Z,94524.09
2022-08-09T13:07:11.994Z,94526.19
2022-08-09T13:09:56.018Z,94527.94
2022-08-09T13:15:21.631Z,94528.09
2022-08-09T13:18:04.702Z,94534.25
2022-08-09T13:21:04.183Z,94536.50
2022-08-09T13:24:42.501Z,94536.28
2022-08-09T13:26:43.669Z,94531.03
2022-08-09T13:29:20.669Z,94541.19
2022-08-09T13:32:17.630Z,94530.59
2022-08-09T13:34:49.308Z,94540.84
2022-08-09T13:37:50.666Z,94537.63
2022-08-09T13:41:46.298Z,94542.75
2022-08-09T13:43:03.529Z,94547.63
2022-08-09T13:46:42.714Z,94544.59
2022-08-09T13:48:21.491Z,94541.84
2022-08-09T13:50:49.520Z,94543.97
2022-08-09T13:53:17.747Z,94546.16
2022-08-09T13:55:47.822Z,94532.03
2022-08-09T13:58:17.449Z,94530.94
2022-08-09T14:00:50.327Z,94531.41
2022-08-09T14:04:02.458Z,94527.81
2022-08-09T14:06:19.522Z,94543.00
2022-08-09T14:08:55.027Z,94537.09
2022-08-09T14:11:23.746Z,94535.16
2022-08-09T14:14:23.194Z,94535.19
2022-08-09T14:16:41.177Z,94528.16
2022-08-09T14:19:09.572Z,94529.00
2022-08-09T14:21:38.154Z,94527.84
2022-08-09T14:24:18.806Z,94529.16
2022-08-09T14:26:51.344Z,94526.75
2022-08-09T14:29:25.764Z,94526.59
2022-08-09T14:32:11.384Z,94517.06
2022-08-09T14:34:44.380Z,94515.06
2022-08-09T14:37:12.940Z,94510.34
2022-08-09T14:39:47.455Z,94514.53
2022-08-09T14:42:30.657Z,94517.88
2022-08-09T14:46:57.369Z,94509.22
2022-08-09T14:48:02.408Z,94509.41
2022-08-09T14:50:34.099Z,94506.28
2022-08-09T14:53:06.143Z,94503.19
2022-08-09T14:55:42.124Z,94509.50
2022-08-09T14:58:12.364Z,94501.69
2022-08-09T15:00:42.618Z,94495.63
2022-08-09T15:03:20.089Z,94495.41
2022-08-09T15:05:52.537Z,94493.81
2022-08-09T15:08:25.089Z,94490.88
2022-08-09T15:11:00.721Z,94483.25
2022-08-09T15:13:56.455Z,94493.63
2022-08-09T15:16:19.639Z,94493.38
2022-08-09T15:18:48.443Z,94493.13
2022-08-09T15:21:55.135Z,94494.13
2022-08-09T15:24:13.047Z,94500.13
2022-08-09T15:26:45.375Z,94496.16
2022-08-09T15:30:57.712Z,94496.50
2022-08-09T15:32:05.470Z,94494.34
2022-08-09T15:34:54.450Z,94498.88
2022-08-09T15:37:56.869Z,94490.81
2022-08-09T15:40:32.047Z,94492.09
2022-08-09T15:43:02.643Z,94489.19
2022-08-09T15:45:30.861Z,94487.47
2022-08-09T15:48:28.753Z,94496.28
2022-08-09T15:50:57.935Z,94488.66
2022-08-09T15:54:05.384Z,94493.97
2022-08-09T15:56:29.301Z,94499.75
2022-08-09T15:58:59.803Z,94500.25
2022-08-09T16:01:31.431Z,94506.63
2022-08-09T16:04:04.891Z,94499.06
2022-08-09T16:06:37.361Z,94495.41
2022-08-09T16:09:06.240Z,94498.88
2022-08-09T16:11:34.465Z,94506.91
2022-08-09T16:14:06.901Z,94506.34
2022-08-09T16:16:37.280Z,94491.66
2022-08-09T16:19:08.559Z,94500.09
2022-08-09T16:21:36.734Z,94497.91
2022-08-09T16:24:20.119Z,94495.63
2022-08-09T16:26:59.435Z,94498.44
2022-08-09T16:29:36.806Z,94503.38
2022-08-09T16:32:19.004Z,94491.78
2022-08-09T16:34:58.126Z,94501.88
2022-08-09T16:37:53.380Z,94500.50
2022-08-09T16:40:20.457Z,94508.47
2022-08-09T16:43:16.514Z,94507.69
2022-08-09T16:45:46.437Z,94505.88
2022-08-09T16:48:38.849Z,94515.09
2022-08-09T16:51:07.962Z,94511.44
2022-08-09T16:54:02.363Z,94513.03
2022-08-09T16:56:30.610Z,94515.38
2022-08-09T16:58:59.252Z,94511.38
2022-08-09T17:01:33.936Z,94520.53
2022-08-09T17:04:02.264Z,94514.91
2022-08-09T17:06:33.741Z,94527.34
2022-08-09T17:09:45.339Z,94518.41
2022-08-09T17:12:09.844Z,94531.59
2022-08-09T17:14:37.849Z,94536.59
2022-08-09T17:17:12.892Z,94550.28
2022-08-09T17:20:32.574Z,94557.53
2022-08-09T17:22:51.752Z,94563.63
2022-08-09T17:25:22.183Z,94562.94
2022-08-09T17:27:53.939Z,94570.19
2022-08-09T17:30:25.962Z,94572.81
2022-08-09T17:33:00.543Z,94566.25
2022-08-09T17:35:33.845Z,94571.03
2022-08-09T17:38:29.247Z,94566.34
2022-08-09T17:40:51.932Z,94568.09
2022-08-09T17:43:33.740Z,94580.59
2022-08-09T17:46:07.110Z,94573.47
2022-08-09T17:48:38.868Z,94567.81
2022-08-09T17:51:17.534Z,94588.06
2022-08-09T17:53:52.292Z,94583.38
2022-08-09T17:56:35.961Z,94600.97
2022-08-09T17:59:11.974Z,94584.72
2022-08-09T18:02:07.433Z,94604.22
2022-08-09T18:04:33.478Z,94613.84
2022-08-09T18:07:04.667Z,94612.78
2022-08-09T18:09:41.396Z,94620.69
2022-08-09T18:12:18.276Z,94632.41
2022-08-09T18:14:54.660Z,94625.06
2022-08-09T18:17:27.313Z,94620.78
2022-08-09T18:20:56.085Z,94628.50
2022-08-09T18:23:05.614Z,94633.06
2022-08-09T18:25:50.625Z,94638.72
2022-08-09T18:30:35.655Z,94633.19
2022-08-09T18:31:09.879Z,94647.69
2022-08-09T18:33:38.041Z,94653.53
2022-08-09T18:36:14.148Z,94655.72
2022-08-09T18:38:57.300Z,94651.25
2022-08-09T18:41:35.096Z,94658.50
2022-08-09T18:44:10.592Z,94656.16
2022-08-09T18:46:50.146Z,94658.34
2022-08-09T18:49:32.082Z,94662.09
2022-08-09T18:52:10.122Z,94659.44
2022-08-09T18:54:42.031Z,94668.00
2022-08-09T18:57:19.918Z,94660.06
2022-08-09T18:59:54.427Z,94661.66
2022-08-09T19:02:32.265Z,94667.25
2022-08-09T19:05:03.848Z,94674.19
2022-08-09T19:08:04.597Z,94671.81
2022-08-09T19:10:37.148Z,94667.25
2022-08-09T19:13:18.853Z,94681.66
2022-08-09T19:15:52.297Z,94680.31
2022-08-09T19:18:34.063Z,94680.84
2022-08-09T19:21:09.627Z,94682.97
2022-08-09T19:24:33.096Z,94677.13
2022-08-09T19:26:31.836Z,94675.00
2022-08-09T19:29:03.622Z,94688.31
2022-08-09T19:31:45.545Z,94683.53
2022-08-09T19:34:21.650Z,94687.28
2022-08-09T19:36:52.063Z,94690.72
2022-08-09T19:39:43.523Z,94688.88
2022-08-09T19:42:08.910Z,94690.72
2022-08-09T19:44:44.599Z,94683.00
2022-08-09T19:47:22.791Z,94681.94
2022-08-09T19:50:06.599Z,94682.47
2022-08-09T19:52:37.351Z,94683.53
2022-08-09T19:55:19.483Z,94678.72
2022-08-09T19:57:54.124Z,94670.47
2022-08-09T20:00:23.609Z,94674.22
2022-08-09T20:04:09.574Z,94679.28
2022-08-09T20:05:47.008Z,94674.50
2022-08-09T20:08:33.219Z,94677.41
2022-08-09T20:11:04.462Z,94678.22
2022-08-09T20:13:37.011Z,94678.72
2022-08-09T20:16:37.127Z,94673.09
2022-08-09T20:19:41.851Z,94668.75
2022-08-09T20:21:56.299Z,94669.25
2022-08-09T20:24:29.764Z,94671.91
2022-08-09T20:27:01.604Z,94673.25
2022-08-09T20:29:37.062Z,94663.09
2022-08-09T20:32:29.420Z,94674.78
2022-08-09T20:34:58.603Z,94671.84
2022-08-09T20:38:18.462Z,94671.84
2022-08-09T20:40:26.450Z,94680.34
2022-08-09T20:42:59.575Z,94671.31
2022-08-09T20:46:01.158Z,94688.09
2022-08-09T20:48:21.119Z,94684.09
2022-08-09T20:50:55.724Z,94687.03
2022-08-09T20:53:35.191Z,94689.38
2022-08-09T20:56:06.447Z,94705.22
2022-08-09T20:58:38.120Z,94714.97
2022-08-09T21:01:32.974Z,94726.13
2022-08-09T21:04:35.633Z,94715.44
2022-08-09T21:06:45.294Z,94726.00
2022-08-09T21:09:14.248Z,94718.44
2022-08-09T21:14:34.706Z,94718.56
2022-08-09T21:18:23.475Z,94716.13
2022-08-09T21:20:18.201Z,94714.59
2022-08-09T21:22:46.617Z,94720.25
2022-08-09T21:25:38.063Z,94725.28
2022-08-09T21:28:12.034Z,94729.91
2022-08-09T21:30:43.757Z,94727.50
2022-08-09T21:33:11.832Z,94728.25
2022-08-09T21:35:51.225Z,94720.84
2022-08-09T21:38:31.010Z,94718.69
2022-08-09T21:41:00.295Z,94724.72
2022-08-09T21:43:56.935Z,94730.09
2022-08-09T21:46:16.421Z,94724.97
2022-08-09T21:48:46.670Z,94717.00
2022-08-09T21:51:35.657Z,94722.53
2022-08-09T21:54:04.096Z,94718.56
2022-08-09T21:56:43.315Z,94714.34
2022-08-09T21:59:20.163Z,94718.56
2022-08-09T22:02:01.264Z,94708.94
2022-08-09T22:04:55.232Z,94713.16
2022-08-09T22:07:35.495Z,94707.47
2022-08-09T22:10:10.766Z,94716.03
2022-08-09T22:12:39.660Z,94707.91
2022-08-09T22:15:17.897Z,94701.59
2022-08-09T22:17:48.635Z,94696.31
2022-08-09T22:20:21.815Z,94693.84
2022-08-09T22:22:57.024Z,94690.63
2022-08-09T22:26:06.970Z,94694.28
2022-08-09T22:28:13.402Z,94702.00
2022-08-09T22:30:49.185Z,94695.88
2022-08-09T22:33:17.450Z,94695.75
2022-08-09T22:36:02.052Z,94701.91
2022-08-09T22:38:32.944Z,94695.22
2022-08-09T22:41:01.267Z,94701.75
2022-08-09T22:44:02.576Z,94697.06
2022-08-09T22:48:14.261Z,94689.00
2022-08-09T22:49:10.025Z,94691.00
2022-08-09T22:51:43.264Z,94698.44
2022-08-09T22:54:21.326Z,94694.97
2022-08-09T22:56:50.768Z,94697.78
2022-08-09T22:59:57.827Z,94685.53
2022-08-09T23:02:10.510Z,94695.09
2022-08-09T23:04:53.291Z,94688.69
2022-08-09T23:08:22.052Z,94689.09
2022-08-09T23:10:31.003Z,94685.78
2022-08-09T23:12:59.310Z,94683.22
2022-08-09T23:15:28.035Z,94696.13
2022-08-09T23:17:57.323Z,94698.22
2022-08-09T23:20:26.203Z,94698.47
2022-08-09T23:22:54.364Z,94695.88
2022-08-09T23:25:22.284Z,94687.88
2022-08-09T23:28:11.681Z,94688.06
2022-08-09T23:30:39.475Z,94679.41
2022-08-09T23:33:19.410Z,94684.38
2022-08-09T23:36:06.685Z,94684.06
2022-08-09T23:38:48.463Z,94681.91
2022-08-09T23:41:27.739Z,94682.69
2022-08-09T23:43:59.646Z,94681.16
2022-08-09T23:46:28.043Z,94680.63
2022-08-09T23:48:56.114Z,94672.19
2022-08-09T23:51:24.311Z,94675.31
2022-08-09T23:53:55.446Z,94679.25
2022-08-09T23:56:53.434Z,94669.31
2022-08-09T23:59:20.652Z,94668.28
